Time;durP1;ratioP1;P1;durP2;ratioP2;P2;SDS_P1;SDS_P2;PMS_P1;PMS_P2;Temp;Humidity;BMP_temperature;BMP_pressure;BME280_temperature;BME280_humidity;BME280_pressure;Samples;Min_cycle;Max_cycle;Signal;HPM_P1;HPM_P2
2021/01/17 05:01:48;;;;;;;5.35;3.03;;;-1.50;99.90;;;;;;5321548;22;89622;-91
2021/01/17 05:04:29;;;;;;;8.63;5.90;;;-1.70;99.90;;;;;;4971123;28;86901;-88
2021/01/17 05:07:30;;;;;;;7.70;4.85;;;-1.60;99.90;;;;;;4970017;28;90457;-89
2021/01/17 05:10:16;;;;;;;;;;;-1.70;99.90;;;;;;4970890;28;86850;-88
2021/01/17 05:12:53;;;;;;;8.85;4.35;;;-1.70;99.90;;;;;;4951391;28;88011;-88
2021/01/17 05:15:21;;;;;;;7.00;5.70;;;-1.60;99.90;;;;;;4962735;28;87598;-86
2021/01/17 05:17:47;;;;;;;8.88;4.57;;;;;;;;;;4972903;28;86606;-88
2021/01/17 05:20:13;;;;;;;7.90;4.78;;;-1.50;99.90;;;;;;4972113;28;86899;-87
2021/01/17 05:22:38;;;;;;;8.27;4.85;;;-1.40;99.90;;;;;;4960755;28;87723;-89
2021/01/17 05:25:07;;;;;;;9.38;6.60;;;-1.30;99.90;;;;;;4965617;28;89664;-89
2021/01/17 05:27:37;;;;;;;8.23;5.55;;;-1.20;99.90;;;;;;4971825;28;87814;-88
2021/01/17 05:30:06;;;;;;;9.02;5.80;;;-1.10;99.90;;;;;;4977480;28;86948;-88
2021/01/17 05:32:32;;;;;;;7.90;4.93;;;-1.10;99.90;;;;;;4967154;28;86185;-89
2021/01/17 05:34:59;;;;;;;7.55;5.43;;;-1.00;99.90;;;;;;4962669;28;87111;-89
2021/01/17 05:37:25;;;;;;;7.10;3.67;;;-1.10;99.90;;;;;;4968576;28;89360;-90
2021/01/17 05:40:00;;;;;;;6.85;4.80;;;-1.10;99.90;;;;;;4970323;28;87350;-90
2021/01/17 05:42:29;;;;;;;5.30;3.33;;;-1.30;99.90;;;;;;4971749;28;86890;-91
2021/01/17 05:45:19;;;;;;;7.78;5.55;;;-1.40;99.90;;;;;;4981926;28;88779;-92
2021/01/17 05:47:55;;;;;;;7.87;6.40;;;-1.40;99.90;;;;;;4959790;28;87763;-89
2021/01/17 05:50:22;;;;;;;7.32;5.53;;;;;;;;;;4977040;28;87761;-88
2021/01/17 05:52:52;;;;;;;9.73;5.40;;;-1.40;99.90;;;;;;4980461;28;86154;-89
2021/01/17 05:55:18;;;;;;;7.10;5.57;;;;;;;;;;4957669;28;90139;-87
2021/01/17 05:57:45;;;;;;;9.82;5.82;;;-1.20;99.90;;;;;;4971808;28;89624;-90
2021/01/17 06:00:12;;;;;;;9.30;6.80;;;-1.20;99.90;;;;;;4975377;28;86503;-86
2021/01/17 06:02:40;;;;;;;8.13;5.18;;;-1.20;99.90;;;;;;4966320;28;86800;-89
2021/01/17 06:05:08;;;;;;;10.32;4.72;;;-1.20;99.90;;;;;;4973514;28;87238;-88
2021/01/17 06:07:34;;;;;;;7.57;6.57;;;;;;;;;;4977010;28;87299;-89
2021/01/17 06:10:06;;;;;;;9.57;6.43;;;-1.30;99.90;;;;;;4966017;28;86489;-91
2021/01/17 06:12:34;;;;;;;9.02;6.40;;;-1.30;99.90;;;;;;4964988;28;86486;-89
2021/01/17 06:15:11;;;;;;;9.85;5.40;;;-1.40;99.90;;;;;;4957133;28;88838;-90
2021/01/17 06:17:58;;;;;;;7.45;4.72;;;-1.40;99.90;;;;;;4964618;28;87425;-90
2021/01/17 06:20:28;;;;;;;8.07;4.95;;;-1.50;99.90;;;;;;4955095;28;86770;-91
2021/01/17 06:22:59;;;;;;;11.30;6.45;;;-1.60;99.90;;;;;;4963591;28;87127;-89
2021/01/17 06:25:31;;;;;;;8.02;6.40;;;-1.60;99.90;;;;;;4972813;28;87678;-89
2021/01/17 06:28:09;;;;;;;7.07;5.53;;;-1.50;99.90;;;;;;4952832;28;87654;-89
2021/01/17 06:30:35;;;;;;;8.52;4.63;;;-1.50;99.90;;;;;;4939497;28;87034;-89
2021/01/17 06:33:03;;;;;;;13.35;5.82;;;-1.50;99.90;;;;;;4954444;28;86517;-88
2021/01/17 06:35:38;;;;;;;11.75;7.18;;;-1.50;99.90;;;;;;4955060;28;88265;-90
2021/01/17 06:38:22;;;;;;;12.65;8.00;;;-1.40;99.90;;;;;;4951500;28;90098;-89
2021/01/17 06:40:49;;;;;;;10.95;6.75;;;-1.40;99.90;;;;;;4961595;28;87781;-90
2021/01/17 06:43:15;;;;;;;9.40;5.95;;;-1.30;99.90;;;;;;4942794;28;86901;-89
2021/01/17 06:45:43;;;;;;;10.30;7.07;;;-1.40;99.90;;;;;;4953613;28;88922;-89
2021/01/17 06:48:24;;;;;;;10.05;6.95;;;-1.40;99.90;;;;;;4962774;28;87353;-90
2021/01/17 06:50:52;;;;;;;9.13;5.13;;;-1.30;99.90;;;;;;4957018;28;86510;-87
2021/01/17 06:53:22;;;;;;;11.80;7.47;;;-1.30;99.90;;;;;;4955807;28;87030;-87
2021/01/17 06:55:49;;;;;;;10.63;6.63;;;-1.30;99.90;;;;;;4961286;28;90339;-90
2021/01/17 06:58:19;;;;;;;9.90;6.22;;;-1.20;99.90;;;;;;4963697;28;87918;-89
2021/01/17 07:00:49;;;;;;;8.90;5.60;;;-1.20;99.90;;;;;;4963215;28;87045;-86
2021/01/17 07:03:16;;;;;;;9.38;5.40;;;-1.20;99.90;;;;;;4962784;28;87123;-90
2021/01/17 07:05:54;;;;;;;8.50;5.32;;;-1.10;99.90;;;;;;4955501;28;89125;-83
2021/01/17 07:08:36;;;;;;;7.80;6.43;;;-1.00;99.90;;;;;;4964281;28;87842;-85
2021/01/17 07:11:45;;;;;;;7.47;5.53;;;-1.00;99.90;;;;;;4968031;28;87369;-83
2021/01/17 07:14:15;;;;;;;11.20;5.90;;;-1.00;99.90;;;;;;4943078;28;86343;-84
2021/01/17 07:16:41;;;;;;;9.32;5.43;;;-0.90;99.90;;;;;;4953726;28;87081;-85
2021/01/17 07:19:08;;;;;;;8.80;6.78;;;-0.90;99.90;;;;;;4956765;28;89301;-85
2021/01/17 07:21:36;;;;;;;10.02;6.85;;;-0.90;99.90;;;;;;4964262;28;86872;-83
2021/01/17 07:24:07;;;;;;;8.40;6.32;;;-0.90;99.90;;;;;;4962395;28;86549;-82
2021/01/17 07:26:54;;;;;;;10.02;6.90;;;-0.90;99.90;;;;;;4961526;28;88937;-82
2021/01/17 07:29:27;;;;;;;11.43;7.05;;;-0.90;99.90;;;;;;4961706;28;87466;-84
2021/01/17 07:31:56;;;;;;;13.15;8.00;;;-0.80;99.90;;;;;;4966496;28;87681;-84
2021/01/17 07:34:22;;;;;;;10.23;6.95;;;-0.80;99.90;;;;;;4959411;28;87431;-83
2021/01/17 07:36:49;;;;;;;10.20;7.03;;;-0.70;99.90;;;;;;4961095;28;87305;-85
2021/01/17 07:39:24;;;;;;;13.93;7.80;;;-0.80;99.90;;;;;;4960034;28;88079;-83
2021/01/17 07:41:50;;;;;;;11.00;6.68;;;-0.70;99.90;;;;;;4962151;28;86864;-84
2021/01/17 07:44:18;;;;;;;13.32;6.70;;;-0.70;99.90;;;;;;4961937;28;87062;-88
2021/01/17 07:46:45;;;;;;;9.20;7.38;;;-0.60;99.90;;;;;;4955942;28;87022;-88
2021/01/17 07:49:12;;;;;;;11.73;6.72;;;-0.60;99.90;;;;;;4965697;28;87371;-89
2021/01/17 07:51:38;;;;;;;10.70;7.80;;;;;;;;;;4955465;28;86576;-88
2021/01/17 07:54:13;;;;;;;11.30;8.00;;;-0.50;99.90;;;;;;4958829;28;86187;-88
2021/01/17 07:56:39;;;;;;;10.35;6.25;;;-0.50;99.90;;;;;;4959449;28;88308;-84
2021/01/17 07:59:08;;;;;;;9.75;8.18;;;-0.50;99.90;;;;;;4960395;28;88826;-85
2021/01/17 08:01:34;;;;;;;11.98;7.13;;;-0.40;99.90;;;;;;4976112;28;86563;-84
2021/01/17 08:04:05;;;;;;;12.18;7.97;;;-0.40;99.90;;;;;;4954058;28;86626;-85
2021/01/17 08:06:39;;;;;;;10.73;7.95;;;-0.40;99.90;;;;;;4954219;28;87839;-87
2021/01/17 08:09:15;;;;;;;11.90;8.05;;;-0.40;99.90;;;;;;4962185;28;87397;-85
2021/01/17 08:11:46;;;;;;;11.60;7.28;;;-0.30;99.90;;;;;;4965833;28;86958;-88
2021/01/17 08:14:17;;;;;;;10.90;6.32;;;-0.30;99.90;;;;;;4962181;28;86356;-89
2021/01/17 08:17:20;;;;;;;13.07;7.65;;;-0.20;99.90;;;;;;4963804;28;87324;-88
2021/01/17 08:19:55;;;;;;;9.48;6.90;;;-0.20;99.90;;;;;;4957357;28;88253;-88
2021/01/17 08:22:26;;;;;;;12.27;7.53;;;-0.20;99.90;;;;;;4958121;28;87590;-88
2021/01/17 08:25:05;;;;;;;10.18;7.00;;;-0.20;99.90;;;;;;4958854;28;86947;-87
2021/01/17 08:27:43;;;;;;;8.90;6.03;;;-0.20;99.90;;;;;;4960117;28;87623;-88
2021/01/17 08:30:10;;;;;;;13.20;7.50;;;;;;;;;;4961275;28;89632;-88
2021/01/17 08:32:55;;;;;;;11.02;7.65;;;-0.10;99.90;;;;;;4959105;28;86949;-89
2021/01/17 08:35:31;;;;;;;7.25;6.45;;;0.00;99.90;;;;;;4953998;28;87015;-88
2021/01/17 08:38:18;;;;;;;9.55;6.65;;;0.00;99.90;;;;;;4962676;28;87679;-84
2021/01/17 08:40:45;;;;;;;8.90;6.43;;;0.00;99.90;;;;;;4961531;28;86832;-85
2021/01/17 08:43:13;;;;;;;9.88;6.63;;;0.10;99.90;;;;;;4970978;28;86802;-84
2021/01/17 08:45:43;;;;;;;7.72;6.22;;;0.10;99.90;;;;;;4963984;28;87005;-85
2021/01/17 08:48:26;;;;;;;6.88;5.65;;;0.10;99.90;;;;;;4963908;28;89682;-86
2021/01/17 08:50:58;;;;;;;6.55;5.65;;;0.10;99.90;;;;;;4962054;28;87248;-84
2021/01/17 08:53:24;;;;;;;7.35;5.30;;;;;;;;;;4964997;28;86152;-83
2021/01/17 08:55:51;;;;;;;5.75;4.50;;;0.20;99.90;;;;;;4966024;28;86252;-86
2021/01/17 08:58:37;;;;;;;7.00;5.63;;;0.20;99.90;;;;;;4961626;28;86926;-86
2021/01/17 09:01:07;;;;;;;9.95;5.40;;;0.20;99.90;;;;;;4959762;28;86267;-85
2021/01/17 09:03:42;;;;;;;8.73;6.53;;;0.20;99.90;;;;;;4963898;28;87188;-86
2021/01/17 09:06:29;;;;;;;6.15;4.35;;;0.20;99.90;;;;;;4958727;28;86147;-85
2021/01/17 09:08:54;;;;;;;7.85;4.22;;;0.20;99.90;;;;;;4957880;28;87301;-86
2021/01/17 09:11:31;;;;;;;6.38;5.07;;;0.30;99.90;;;;;;4962215;28;88330;-86
2021/01/17 09:14:21;;;;;;;6.97;5.30;;;0.30;99.90;;;;;;4958149;28;87859;-86
2021/01/17 09:16:48;;;;;;;5.88;4.18;;;0.30;99.90;;;;;;4950582;28;87627;-84
2021/01/17 09:19:15;;;;;;;8.88;6.55;;;0.40;99.90;;;;;;4964690;28;87035;-86
2021/01/17 09:21:41;;;;;;;8.07;5.78;;;0.40;99.90;;;;;;4966732;28;86808;-87
2021/01/17 09:24:12;;;;;;;10.40;5.28;;;0.40;99.90;;;;;;4959451;28;86886;-86
2021/01/17 09:26:52;;;;;;;6.80;5.00;;;0.40;99.90;;;;;;4966706;28;88713;-87
2021/01/17 09:29:30;;;;;;;9.15;6.70;;;0.50;99.90;;;;;;4958178;28;86898;-86
2021/01/17 09:32:10;;;;;;;8.23;6.90;;;0.50;99.90;;;;;;4954220;28;87439;-87
2021/01/17 09:34:40;;;;;;;9.30;6.22;;;0.50;99.90;;;;;;4960218;28;86248;-86
2021/01/17 09:37:08;;;;;;;9.00;7.18;;;0.40;99.90;;;;;;4953550;28;86857;-86
2021/01/17 09:39:37;;;;;;;7.80;7.00;;;0.40;99.90;;;;;;4963671;28;88461;-85
2021/01/17 09:42:04;;;;;;;10.52;7.15;;;0.30;99.90;;;;;;4965809;28;87933;-84
2021/01/17 09:44:31;;;;;;;12.90;7.50;;;0.40;99.90;;;;;;4965674;28;86519;-86
2021/01/17 09:46:58;;;;;;;12.23;7.55;;;0.40;99.90;;;;;;4960296;28;87034;-86
2021/01/17 09:49:30;;;;;;;10.52;7.30;;;0.60;99.90;;;;;;4954857;28;87852;-85
2021/01/17 09:51:57;;;;;;;12.25;9.43;;;0.50;99.90;;;;;;4961500;28;87355;-85
2021/01/17 09:54:23;;;;;;;13.00;8.57;;;0.60;99.90;;;;;;4958588;28;86499;-86
2021/01/17 09:56:50;;;;;;;11.10;8.00;;;0.70;99.90;;;;;;4952670;28;86289;-82
2021/01/17 09:59:18;;;;;;;14.15;8.57;;;0.80;99.90;;;;;;4960723;28;87197;-84
2021/01/17 10:01:46;;;;;;;11.05;7.75;;;0.90;99.90;;;;;;4966013;28;87570;-85
2021/01/17 10:04:25;;;;;;;10.18;7.72;;;0.90;99.90;;;;;;4968160;28;87880;-80
2021/01/17 10:06:53;;;;;;;12.82;8.05;;;0.90;99.90;;;;;;4958667;28;87126;-86
2021/01/17 10:09:20;;;;;;;10.57;7.00;;;0.90;99.90;;;;;;4953466;28;88497;-84
2021/01/17 10:11:52;;;;;;;14.30;8.77;;;0.80;99.90;;;;;;4964015;28;87558;-84
2021/01/17 10:14:22;;;;;;;12.65;9.30;;;0.80;99.90;;;;;;4963272;28;86413;-87
2021/01/17 10:16:55;;;;;;;12.87;9.17;;;0.80;99.90;;;;;;4956101;28;86129;-84
2021/01/17 10:19:30;;;;;;;15.07;9.50;;;0.80;99.90;;;;;;4972161;28;87371;-87
2021/01/17 10:21:57;;;;;;;13.05;8.32;;;1.10;99.90;;;;;;4961248;28;86282;-85
2021/01/17 10:24:30;;;;;;;10.68;7.80;;;1.10;99.90;;;;;;4971584;28;86534;-84
2021/01/17 10:26:59;;;;;;;13.45;8.52;;;1.10;99.90;;;;;;4959705;28;86871;-88
2021/01/17 10:29:35;;;;;;;12.05;8.00;;;1.10;99.90;;;;;;4952287;28;89013;-87
2021/01/17 10:32:07;;;;;;;12.88;8.50;;;1.00;99.90;;;;;;4953637;28;89461;-85
2021/01/17 10:34:34;;;;;;;12.98;9.10;;;1.00;99.90;;;;;;4951407;28;86850;-88
2021/01/17 10:37:06;;;;;;;10.98;7.72;;;0.80;99.90;;;;;;4960261;28;86854;-87
2021/01/17 10:39:36;;;;;;;11.38;8.45;;;0.70;99.90;;;;;;4949125;28;87693;-86
2021/01/17 10:42:05;;;;;;;12.38;8.40;;;0.60;99.90;;;;;;4960293;28;87068;-88
2021/01/17 10:44:33;;;;;;;11.40;8.02;;;0.60;99.90;;;;;;4959110;28;86672;-88
2021/01/17 10:47:07;;;;;;;13.70;9.82;;;0.60;99.90;;;;;;4953136;28;86015;-87
2021/01/17 10:49:36;;;;;;;13.52;9.00;;;0.60;99.90;;;;;;4958476;28;89714;-87
2021/01/17 10:52:10;;;;;;;12.82;9.60;;;0.70;99.90;;;;;;4960071;28;87946;-87
2021/01/17 10:54:41;;;;;;;13.13;9.00;;;0.70;99.90;;;;;;4958606;28;87486;-85
2021/01/17 10:57:07;;;;;;;14.02;9.68;;;;;;;;;;4951939;28;86767;-87
2021/01/17 10:59:35;;;;;;;15.15;9.82;;;0.90;99.90;;;;;;4968204;28;87072;-87
2021/01/17 11:02:01;;;;;;;13.32;8.93;;;1.00;99.90;;;;;;4951229;28;89686;-87
2021/01/17 11:04:40;;;;;;;11.93;9.07;;;1.00;99.90;;;;;;4956772;28;86730;-87
2021/01/17 11:07:09;;;;;;;12.45;8.23;;;1.10;99.90;;;;;;4959637;28;87320;-88
2021/01/17 11:09:36;;;;;;;14.77;9.45;;;1.20;99.90;;;;;;4959776;28;87861;-89
2021/01/17 11:12:02;;;;;;;10.73;8.65;;;1.20;99.90;;;;;;4955179;28;88849;-88
2021/01/17 11:14:32;;;;;;;12.27;8.68;;;1.50;99.90;;;;;;4957178;28;87024;-87
2021/01/17 11:17:01;;;;;;;11.00;8.52;;;1.30;99.90;;;;;;4955215;28;86864;-85
2021/01/17 11:19:38;;;;;;;10.73;7.97;;;1.60;99.90;;;;;;4956975;28;90299;-89
2021/01/17 11:22:06;;;;;;;9.68;7.90;;;1.60;99.90;;;;;;4956217;28;88078;-86
2021/01/17 11:24:39;;;;;;;10.85;7.88;;;1.60;99.90;;;;;;4960518;28;86759;-87
2021/01/17 11:27:14;;;;;;;14.23;9.82;;;1.60;99.90;;;;;;4954355;28;86796;-87
2021/01/17 11:29:41;;;;;;;12.85;8.68;;;1.50;99.90;;;;;;4948835;28;90236;-86
2021/01/17 11:32:07;;;;;;;12.02;8.23;;;1.60;99.90;;;;;;4961174;28;90013;-86
2021/01/17 11:34:39;;;;;;;15.73;9.57;;;1.70;99.90;;;;;;4967874;28;86045;-85
2021/01/17 11:37:06;;;;;;;15.10;9.88;;;1.80;99.90;;;;;;4981238;28;85349;-87
2021/01/17 11:39:32;;;;;;;12.65;9.55;;;1.80;99.90;;;;;;4974513;28;87353;-87
2021/01/17 11:41:59;;;;;;;12.73;9.48;;;1.90;99.90;;;;;;4969826;28;86670;-86
2021/01/17 11:44:26;;;;;;;16.08;10.60;;;1.70;99.90;;;;;;4977001;28;87034;-86
2021/01/17 11:46:53;;;;;;;15.93;10.98;;;;;;;;;;4983136;28;87008;-85
2021/01/17 11:49:24;;;;;;;13.80;10.38;;;1.80;99.90;;;;;;4976872;28;87794;-85
2021/01/17 11:51:51;;;;;;;15.00;10.90;;;;;;;;;;4975636;28;88285;-84
2021/01/17 11:54:25;;;;;;;12.80;10.23;;;2.10;99.90;;;;;;4967614;28;87032;-85
2021/01/17 11:57:05;;;;;;;15.90;11.05;;;2.20;99.90;;;;;;4966600;28;86472;-85
2021/01/17 11:59:34;;;;;;;13.85;10.50;;;2.20;99.90;;;;;;4958987;28;86993;-86
2021/01/17 12:02:24;;;;;;;16.05;10.88;;;2.20;99.90;;;;;;4941825;28;87410;-86
2021/01/17 12:04:58;;;;;;;14.23;12.18;;;2.10;99.90;;;;;;4959081;28;86242;-81
2021/01/17 12:07:24;;;;;;;23.83;16.65;;;2.20;99.90;;;;;;4965075;28;87206;-83
2021/01/17 12:10:05;;;;;;;15.32;10.35;;;2.30;99.90;;;;;;4954488;28;89989;-85
2021/01/17 12:12:36;;;;;;;17.67;11.43;;;2.30;99.90;;;;;;4957218;28;89849;-84
2021/01/17 12:15:04;;;;;;;18.52;11.80;;;2.00;99.90;;;;;;4959108;28;86378;-85
2021/01/17 12:17:30;;;;;;;15.13;11.52;;;2.00;99.90;;;;;;4961122;28;86296;-89
2021/01/17 12:19:56;;;;;;;16.13;11.48;;;1.90;99.90;;;;;;4953984;28;87105;-88
2021/01/17 12:22:22;;;;;;;16.58;10.88;;;1.90;99.90;;;;;;4951049;28;87126;-87
2021/01/17 12:24:47;;;;;;;15.98;11.68;;;1.70;99.90;;;;;;4957186;28;86983;-88
2021/01/17 12:27:13;;;;;;;14.27;10.85;;;1.60;99.90;;;;;;4957595;28;85796;-87
2021/01/17 12:29:38;;;;;;;16.05;11.18;;;1.60;99.90;;;;;;4962889;28;87951;-87
2021/01/17 12:32:04;;;;;;;16.58;11.52;;;1.60;99.90;;;;;;4958085;28;89456;-88
2021/01/17 12:34:30;;;;;;;16.83;12.18;;;1.60;99.90;;;;;;4956678;28;87769;-86
2021/01/17 12:36:56;;;;;;;20.00;12.68;;;1.60;99.90;;;;;;4956398;28;86820;-86
2021/01/17 12:39:21;;;;;;;17.70;12.00;;;1.70;99.90;;;;;;4952248;28;86970;-88
2021/01/17 12:41:51;;;;;;;16.95;11.98;;;1.70;99.90;;;;;;4958725;28;87074;-88
2021/01/17 12:44:18;;;;;;;18.13;12.93;;;1.70;99.90;;;;;;4956839;28;87097;-88
2021/01/17 12:46:46;;;;;;;15.27;11.68;;;1.90;99.90;;;;;;4951767;28;86731;-85
2021/01/17 12:49:15;;;;;;;17.85;13.23;;;1.90;99.90;;;;;;4962946;28;87262;-86
2021/01/17 12:51:42;;;;;;;21.08;14.50;;;2.20;99.90;;;;;;4963217;28;87780;-86
2021/01/17 12:54:08;;;;;;;17.40;12.48;;;2.30;99.90;;;;;;4957554;28;86959;-84
2021/01/17 12:56:34;;;;;;;18.60;12.75;;;2.40;99.90;;;;;;4958103;28;87638;-84
2021/01/17 12:59:02;;;;;;;20.27;14.48;;;2.60;99.90;;;;;;4965235;28;88642;-85
2021/01/17 13:01:28;;;;;;;18.05;13.85;;;2.60;99.90;;;;;;4965749;28;87170;-85
2021/01/17 13:03:53;;;;;;;17.92;13.63;;;2.40;99.90;;;;;;4962637;28;86636;-84
2021/01/17 13:06:19;;;;;;;21.95;14.40;;;2.50;99.90;;;;;;4963196;28;86899;-82
2021/01/17 13:08:46;;;;;;;17.63;12.57;;;2.50;99.90;;;;;;4959671;28;87292;-84
2021/01/17 13:11:13;;;;;;;18.17;13.15;;;2.70;99.90;;;;;;4963149;28;87388;-84
2021/01/17 13:13:40;;;;;;;19.48;13.60;;;2.60;99.90;;;;;;4949918;28;88680;-84
2021/01/17 13:16:11;;;;;;;20.60;14.15;;;2.70;99.90;;;;;;4957011;28;86080;-85
2021/01/17 13:18:36;;;;;;;21.27;14.90;;;2.80;99.90;;;;;;4957656;28;87674;-85
2021/01/17 13:21:02;;;;;;;20.58;14.30;;;2.80;99.90;;;;;;4960465;28;86559;-87
2021/01/17 13:23:29;;;;;;;18.85;13.88;;;2.70;99.90;;;;;;4956893;28;87871;-86
2021/01/17 13:25:55;;;;;;;20.67;13.07;;;2.80;99.90;;;;;;4962816;28;87124;-88
2021/01/17 13:28:23;;;;;;;18.65;13.30;;;2.80;99.90;;;;;;4960321;28;87961;-87
2021/01/17 13:30:49;;;;;;;19.85;14.73;;;;;;;;;;4952434;28;89939;-87
2021/01/17 13:33:16;;;;;;;19.77;13.25;;;4.20;99.90;;;;;;4950323;28;86937;-88
2021/01/17 13:35:54;;;;;;;20.05;14.07;;;3.00;99.90;;;;;;4953422;28;87205;-83
2021/01/17 13:38:23;;;;;;;17.67;13.07;;;3.00;99.90;;;;;;4959603;28;87015;-83
2021/01/17 13:40:50;;;;;;;23.23;15.88;;;3.00;99.90;;;;;;4958433;28;88352;-82
2021/01/17 13:43:16;;;;;;;17.13;13.38;;;3.10;99.90;;;;;;4957734;28;87101;-82
2021/01/17 13:45:43;;;;;;;19.48;13.65;;;3.20;99.90;;;;;;4956613;28;86797;-81
2021/01/17 13:48:09;;;;;;;19.90;14.77;;;3.30;99.90;;;;;;4958691;28;88092;-82
2021/01/17 13:50:36;;;;;;;19.67;13.80;;;3.30;99.90;;;;;;4959814;28;87188;-84
2021/01/17 13:53:02;;;;;;;20.05;13.82;;;3.30;99.90;;;;;;4964870;28;86882;-83
2021/01/17 13:55:28;;;;;;;34.92;20.65;;;3.40;99.90;;;;;;4966003;28;86955;-83
2021/01/17 13:57:54;;;;;;;27.30;17.05;;;3.50;99.90;;;;;;4964222;28;87602;-84
2021/01/17 14:00:23;;;;;;;22.95;17.42;;;3.60;99.90;;;;;;4960732;28;87073;-87
2021/01/17 14:02:52;;;;;;;20.08;14.70;;;3.60;99.90;;;;;;4964375;28;86407;-86
2021/01/17 14:05:24;;;;;;;24.33;15.77;;;3.70;99.90;;;;;;4957779;28;85975;-88
2021/01/17 14:07:54;;;;;;;22.67;15.38;;;3.60;99.90;;;;;;4951163;28;87198;-88
2021/01/17 14:10:25;;;;;;;26.20;17.20;;;3.70;99.90;;;;;;4965197;28;87013;-86
2021/01/17 14:12:52;;;;;;;29.05;21.15;;;3.70;99.90;;;;;;4958606;28;87773;-86
2021/01/17 14:15:19;;;;;;;22.75;17.38;;;3.80;99.90;;;;;;4954792;28;86961;-85
2021/01/17 14:17:49;;;;;;;18.73;14.18;;;3.70;99.90;;;;;;4956848;28;86896;-80
2021/01/17 14:20:16;;;;;;;19.95;15.05;;;3.70;99.90;;;;;;4952010;28;90350;-83
2021/01/17 14:22:42;;;;;;;23.92;15.10;;;3.60;99.90;;;;;;4956315;28;87035;-85
2021/01/17 14:25:08;;;;;;;20.83;14.57;;;3.50;99.90;;;;;;4963734;28;87142;-82
2021/01/17 14:27:37;;;;;;;19.38;13.35;;;3.60;99.90;;;;;;4960297;28;90275;-83
2021/01/17 14:30:06;;;;;;;18.55;14.65;;;3.60;99.90;;;;;;4954706;28;86411;-82
2021/01/17 14:32:32;;;;;;;32.00;21.65;;;3.30;99.90;;;;;;4955297;28;88761;-85
2021/01/17 14:34:57;;;;;;;25.02;17.60;;;2.80;99.90;;;;;;4962081;28;87099;-84
2021/01/17 14:37:23;;;;;;;23.52;16.80;;;2.90;99.90;;;;;;4955571;28;89129;-83
2021/01/17 14:39:49;;;;;;;19.08;14.52;;;3.00;99.90;;;;;;4962672;28;88080;-83
2021/01/17 14:42:15;;;;;;;17.35;13.07;;;3.10;99.90;;;;;;4961290;28;87285;-82
2021/01/17 14:44:41;;;;;;;15.82;12.95;;;3.20;99.90;;;;;;4956475;28;87160;-84
2021/01/17 14:47:08;;;;;;;17.45;13.20;;;3.30;99.90;;;;;;4956691;28;87193;-83
2021/01/17 14:49:36;;;;;;;17.45;12.43;;;3.20;99.90;;;;;;4956098;28;87377;-83
2021/01/17 14:52:02;;;;;;;13.93;11.00;;;3.10;99.90;;;;;;4959782;28;86810;-82
2021/01/17 14:54:27;;;;;;;17.90;12.05;;;3.20;99.90;;;;;;4961859;28;86151;-86
2021/01/17 14:56:54;;;;;;;15.82;11.65;;;3.10;99.90;;;;;;4959308;28;87671;-83
2021/01/17 14:59:27;;;;;;;12.68;11.05;;;3.10;99.90;;;;;;4953231;28;87327;-84
2021/01/17 15:02:00;;;;;;;15.98;12.80;;;3.00;99.90;;;;;;4952756;28;87916;-82
2021/01/17 15:04:26;;;;;;;15.18;11.13;;;3.10;99.90;;;;;;4950356;28;87136;-82
2021/01/17 15:06:53;;;;;;;12.57;9.63;;;3.00;99.90;;;;;;4960696;28;87020;-83
2021/01/17 15:09:19;;;;;;;14.52;10.85;;;2.90;99.90;;;;;;4955629;28;87532;-82
2021/01/17 15:11:45;;;;;;;14.95;12.95;;;3.10;99.90;;;;;;4950344;28;87070;-82
2021/01/17 15:14:12;;;;;;;12.50;9.70;;;3.10;99.90;;;;;;4952494;28;87026;-82
2021/01/17 15:16:37;;;;;;;10.63;8.10;;;3.10;99.90;;;;;;4954564;28;87600;-83
2021/01/17 15:19:03;;;;;;;12.57;8.60;;;3.10;99.90;;;;;;4958412;28;86917;-83
2021/01/17 15:21:30;;;;;;;12.93;8.02;;;3.20;99.90;;;;;;4965867;28;86839;-82
2021/01/17 15:23:56;;;;;;;9.98;7.45;;;3.10;99.90;;;;;;4962875;28;86641;-81
2021/01/17 15:26:22;;;;;;;11.68;7.53;;;3.10;99.90;;;;;;4966337;28;87619;-82
2021/01/17 15:28:49;;;;;;;9.35;5.88;;;3.10;99.90;;;;;;4957858;28;88622;-82
2021/01/17 15:31:16;;;;;;;6.97;6.28;;;3.10;99.90;;;;;;4957855;28;86896;-81
2021/01/17 15:33:42;;;;;;;5.85;5.30;;;2.90;99.90;;;;;;4946608;28;87113;-81
2021/01/17 15:36:13;;;;;;;8.35;5.72;;;2.80;99.90;;;;;;4949248;28;86806;-80
2021/01/17 15:38:42;;;;;;;5.45;4.93;;;2.70;99.90;;;;;;4949709;28;87567;-81
2021/01/17 15:41:09;;;;;;;6.53;5.43;;;2.70;99.90;;;;;;4955203;28;86949;-83
2021/01/17 15:43:34;;;;;;;6.80;5.25;;;2.60;99.90;;;;;;4953752;28;86221;-82
2021/01/17 15:46:00;;;;;;;8.98;6.20;;;2.50;99.90;;;;;;4948114;28;89377;-82
2021/01/17 15:48:26;;;;;;;13.15;6.70;;;2.50;99.90;;;;;;4954263;28;87523;-81
2021/01/17 15:50:51;;;;;;;6.60;5.60;;;2.50;99.90;;;;;;4947452;28;87667;-84
2021/01/17 15:53:17;;;;;;;7.10;5.40;;;2.60;99.90;;;;;;4954509;28;86640;-82
2021/01/17 15:55:43;;;;;;;7.10;6.07;;;2.50;99.90;;;;;;4954297;28;86988;-85
2021/01/17 15:58:09;;;;;;;6.65;5.53;;;2.50;99.90;;;;;;4949596;28;88529;-82
2021/01/17 16:00:34;;;;;;;5.93;3.75;;;2.40;99.90;;;;;;4955382;28;86986;-84
2021/01/17 16:03:00;;;;;;;8.55;6.35;;;2.40;99.90;;;;;;4958287;28;87032;-82
2021/01/17 16:05:25;;;;;;;7.20;5.53;;;2.40;99.90;;;;;;4956257;28;88136;-82
2021/01/17 16:07:51;;;;;;;5.95;5.38;;;2.30;99.90;;;;;;4947990;28;91252;-81
2021/01/17 16:10:19;;;;;;;8.32;6.28;;;2.20;99.90;;;;;;4950742;28;86925;-82
2021/01/17 16:12:45;;;;;;;7.38;5.63;;;2.30;99.90;;;;;;4956731;28;87382;-81
2021/01/17 16:15:11;;;;;;;8.15;6.68;;;2.30;99.90;;;;;;4957568;28;89371;-81
2021/01/17 16:17:38;;;;;;;7.28;6.50;;;2.30;99.90;;;;;;4957650;28;87133;-81
2021/01/17 16:20:06;;;;;;;8.00;7.00;;;2.40;99.90;;;;;;4952520;28;86227;-86
2021/01/17 16:22:32;;;;;;;11.05;7.38;;;2.40;99.90;;;;;;4962624;28;87057;-86
2021/01/17 16:24:58;;;;;;;10.70;7.80;;;2.40;99.90;;;;;;4976046;28;86923;-85
2021/01/17 16:27:25;;;;;;;10.50;8.55;;;2.50;99.90;;;;;;4960686;28;87027;-87
2021/01/17 16:29:51;;;;;;;11.32;7.93;;;2.50;99.90;;;;;;4955153;28;87087;-85
2021/01/17 16:32:17;;;;;;;10.32;8.50;;;2.40;99.90;;;;;;4963367;28;86041;-87
2021/01/17 16:34:44;;;;;;;11.40;8.40;;;2.40;99.90;;;;;;4963439;28;87312;-86
2021/01/17 16:37:10;;;;;;;14.93;9.40;;;2.40;99.90;;;;;;4958176;28;87895;-85
2021/01/17 16:39:36;;;;;;;14.40;9.40;;;2.50;99.90;;;;;;4958198;28;87838;-85
2021/01/17 16:42:04;;;;;;;16.15;10.32;;;2.50;99.90;;;;;;4957024;28;87199;-87
2021/01/17 16:44:30;;;;;;;13.90;10.25;;;2.60;99.90;;;;;;4953452;28;87328;-86
2021/01/17 16:46:56;;;;;;;13.85;9.05;;;2.50;99.90;;;;;;4956965;28;90723;-86
2021/01/17 16:49:24;;;;;;;16.33;10.15;;;2.40;99.90;;;;;;4959732;28;86997;-85
2021/01/17 16:51:53;;;;;;;14.90;10.45;;;2.40;99.90;;;;;;4966584;28;86887;-85
2021/01/17 16:54:20;;;;;;;17.80;12.43;;;2.50;99.90;;;;;;4957271;28;87267;-87
2021/01/17 16:56:46;;;;;;;20.00;11.75;;;2.60;99.90;;;;;;4960721;28;87509;-85
2021/01/17 16:59:12;;;;;;;17.83;11.50;;;2.60;99.90;;;;;;4943358;28;86959;-88
2021/01/17 17:01:43;;;;;;;17.65;11.05;;;2.70;99.90;;;;;;4969081;28;87683;-88
2021/01/17 17:04:11;;;;;;;21.20;12.97;;;2.70;99.90;;;;;;4971278;28;87780;-86
2021/01/17 17:06:38;;;;;;;17.83;12.13;;;2.70;99.90;;;;;;4958990;28;88363;-86
2021/01/17 17:09:07;;;;;;;17.13;11.80;;;2.70;99.90;;;;;;4964609;28;86892;-86
2021/01/17 17:11:33;;;;;;;21.33;13.57;;;2.70;99.90;;;;;;4970115;28;86846;-87
2021/01/17 17:14:00;;;;;;;16.83;11.82;;;2.70;99.90;;;;;;4956424;28;86630;-83
2021/01/17 17:16:29;;;;;;;17.30;11.80;;;2.50;99.90;;;;;;4953831;28;87442;-87
2021/01/17 17:18:56;;;;;;;16.95;11.93;;;2.50;99.90;;;;;;4964989;28;86945;-86
2021/01/17 17:21:27;;;;;;;19.60;11.25;;;2.40;99.90;;;;;;4957531;28;86835;-83
2021/01/17 17:23:54;;;;;;;18.63;12.70;;;2.50;99.90;;;;;;4964999;28;86623;-85
2021/01/17 17:26:22;;;;;;;16.63;11.75;;;2.50;99.90;;;;;;4970610;28;86638;-86
2021/01/17 17:28:49;;;;;;;19.40;12.55;;;2.50;99.90;;;;;;4970157;28;87769;-85
2021/01/17 17:31:15;;;;;;;22.05;13.45;;;2.60;99.90;;;;;;4979447;28;86272;-82
2021/01/17 17:33:44;;;;;;;20.70;12.18;;;2.50;99.90;;;;;;4977972;28;87237;-81
2021/01/17 17:36:11;;;;;;;19.85;13.13;;;2.50;99.90;;;;;;4981480;28;87038;-83
2021/01/17 17:38:38;;;;;;;22.92;13.30;;;2.50;99.90;;;;;;4969997;28;86924;-86
2021/01/17 17:41:06;;;;;;;25.35;14.07;;;2.50;99.90;;;;;;4966986;28;87301;-88
2021/01/17 17:43:32;;;;;;;21.52;13.82;;;2.50;99.90;;;;;;4958441;28;86554;-87
2021/01/17 17:45:58;;;;;;;18.33;11.25;;;2.50;99.90;;;;;;4966035;28;87245;-85
2021/01/17 17:48:24;;;;;;;27.00;12.07;;;2.50;99.90;;;;;;4965804;28;86776;-87
2021/01/17 17:50:50;;;;;;;21.67;11.75;;;2.50;99.90;;;;;;4979039;28;86570;-86
2021/01/17 17:53:15;;;;;;;21.60;11.45;;;2.50;99.90;;;;;;4970263;28;88340;-86
2021/01/17 17:55:41;;;;;;;17.30;10.35;;;2.60;99.90;;;;;;4971772;28;89497;-86
2021/01/17 17:58:07;;;;;;;22.02;10.68;;;2.60;99.90;;;;;;4988031;28;86029;-87
2021/01/17 18:00:33;;;;;;;18.50;10.05;;;2.70;99.90;;;;;;4969400;28;86324;-86